sensor_id;sensor_type;location;lat;lon;timestamp;pressure;altitude;pressure_sealevel;temperature;humidity
31337;BME280;22846;42.654;23.314;2022-11-11T00:01:16;95619.69;;;26.66;47.35
31337;BME280;22846;42.654;23.314;2022-11-11T00:03:42;95622.41;;;26.66;47.26
31337;BME280;22846;42.654;23.314;2022-11-11T00:06:13;95622.41;;;26.66;47.15
31337;BME280;22846;42.654;23.314;2022-11-11T00:08:39;95618.81;;;26.69;47.16
31337;BME280;22846;42.654;23.314;2022-11-11T00:11:07;95619.19;;;26.71;47.14
31337;BME280;22846;42.654;23.314;2022-11-11T00:13:34;95614.03;;;26.73;47.15
31337;BME280;22846;42.654;23.314;2022-11-11T00:16:07;95613.16;;;26.76;47.00
31337;BME280;22846;42.654;23.314;2022-11-11T00:18:35;95610.94;;;26.71;46.97
31337;BME280;22846;42.654;23.314;2022-11-11T00:21:19;95623.47;;;26.72;46.66
31337;BME280;22846;42.654;23.314;2022-11-11T00:24:04;95617.81;;;26.63;46.96
31337;BME280;22846;42.654;23.314;2022-11-11T00:26:48;95618.66;;;26.60;46.98
31337;BME280;22846;42.654;23.314;2022-11-11T00:29:14;95622.84;;;26.64;47.24
31337;BME280;22846;42.654;23.314;2022-11-11T00:31:39;95618.06;;;26.68;46.91
31337;BME280;22846;42.654;23.314;2022-11-11T00:34:25;95630.91;;;26.71;46.95
31337;BME280;22846;42.654;23.314;2022-11-11T00:36:50;95635.53;;;26.74;46.59
31337;BME280;22846;42.654;23.314;2022-11-11T00:39:16;95631.16;;;26.77;46.75
31337;BME280;22846;42.654;23.314;2022-11-11T00:41:41;95627.22;;;26.78;46.91
31337;BME280;22846;42.654;23.314;2022-11-11T00:44:07;95627.75;;;26.73;46.52
31337;BME280;22846;42.654;23.314;2022-11-11T00:46:32;95629.44;;;26.67;46.84
31337;BME280;22846;42.654;23.314;2022-11-11T00:49:16;95614.44;;;26.55;47.17
31337;BME280;22846;42.654;23.314;2022-11-11T00:52:00;95619.75;;;26.62;46.91
31337;BME280;22846;42.654;23.314;2022-11-11T00:54:26;95619.34;;;26.64;46.99
31337;BME280;22846;42.654;23.314;2022-11-11T00:56:51;95623.97;;;26.67;46.88
31337;BME280;22846;42.654;23.314;2022-11-11T00:59:16;95624.66;;;26.71;47.01
31337;BME280;22846;42.654;23.314;2022-11-11T01:01:42;95623.03;;;26.73;46.84
31337;BME280;22846;42.654;23.314;2022-11-11T01:04:07;95598.69;;;26.59;46.67
31337;BME280;22846;42.654;23.314;2022-11-11T01:06:33;95621.31;;;26.79;46.80
31337;BME280;22846;42.654;23.314;2022-11-11T01:09:04;95614.38;;;26.75;46.64
31337;BME280;22846;42.654;23.314;2022-11-11T01:11:29;95612.50;;;26.72;46.60
31337;BME280;22846;42.654;23.314;2022-11-11T01:13:55;95614.53;;;26.68;46.79
31337;BME280;22846;42.654;23.314;2022-11-11T01:16:23;95612.25;;;26.66;46.83
31337;BME280;22846;42.654;23.314;2022-11-11T01:18:50;95607.84;;;26.69;47.04
31337;BME280;22846;42.654;23.314;2022-11-11T01:21:23;95612.50;;;26.72;46.69
31337;BME280;22846;42.654;23.314;2022-11-11T01:23:50;95611.63;;;26.75;46.61
31337;BME280;22846;42.654;23.314;2022-11-11T01:26:26;95613.53;;;26.78;46.56
31337;BME280;22846;42.654;23.314;2022-11-11T01:28:54;95610.69;;;26.81;46.62
31337;BME280;22846;42.654;23.314;2022-11-11T01:31:21;95617.72;;;26.82;46.46
31337;BME280;22846;42.654;23.314;2022-11-11T01:33:47;95613.06;;;26.79;46.35
31337;BME280;22846;42.654;23.314;2022-11-11T01:36:16;95608.56;;;26.73;46.50
31337;BME280;22846;42.654;23.314;2022-11-11T01:38:42;95599.38;;;26.63;46.71
31337;BME280;22846;42.654;23.314;2022-11-11T01:41:11;95607.84;;;26.69;46.49
31337;BME280;22846;42.654;23.314;2022-11-11T01:43:55;95605.13;;;26.69;46.44
31337;BME280;22846;42.654;23.314;2022-11-11T01:46:32;95610.88;;;26.74;46.50
31337;BME280;22846;42.654;23.314;2022-11-11T01:49:21;95617.47;;;26.77;46.44
31337;BME280;22846;42.654;23.314;2022-11-11T01:51:58;95615.06;;;26.79;46.46
31337;BME280;22846;42.654;23.314;2022-11-11T01:54:32;95618.56;;;26.79;46.39
31337;BME280;22846;42.654;23.314;2022-11-11T01:57:11;95613.59;;;26.74;46.24
31337;BME280;22846;42.654;23.314;2022-11-11T01:59:41;95618.06;;;26.68;46.65
31337;BME280;22846;42.654;23.314;2022-11-11T02:02:14;95613.88;;;26.64;46.64
31337;BME280;22846;42.654;23.314;2022-11-11T02:04:43;95625.16;;;26.66;46.67
31337;BME280;22846;42.654;23.314;2022-11-11T02:07:28;95619.28;;;26.67;46.62
31337;BME280;22846;42.654;23.314;2022-11-11T02:09:56;95632.09;;;26.70;46.58
31337;BME280;22846;42.654;23.314;2022-11-11T02:12:22;95626.56;;;26.74;46.42
31337;BME280;22846;42.654;23.314;2022-11-11T02:15:06;95628.44;;;26.77;46.12
31337;BME280;22846;42.654;23.314;2022-11-11T02:17:32;95628.78;;;26.79;46.33
31337;BME280;22846;42.654;23.314;2022-11-11T02:20:00;95630.69;;;26.82;46.52
31337;BME280;22846;42.654;23.314;2022-11-11T02:22:35;95627.59;;;26.80;46.15
31337;BME280;22846;42.654;23.314;2022-11-11T02:25:04;95633.56;;;26.75;46.12
31337;BME280;22846;42.654;23.314;2022-11-11T02:27:34;95626.31;;;26.68;46.53
31337;BME280;22846;42.654;23.314;2022-11-11T02:30:03;95627.91;;;26.66;46.43
31337;BME280;22846;42.654;23.314;2022-11-11T02:32:29;95625.50;;;26.68;46.51
31337;BME280;22846;42.654;23.314;2022-11-11T02:34:55;95621.13;;;26.70;46.36
31337;BME280;22846;42.654;23.314;2022-11-11T02:37:24;95614.53;;;26.68;46.38
31337;BME280;22846;42.654;23.314;2022-11-11T02:39:53;95624.94;;;26.76;46.28
31337;BME280;22846;42.654;23.314;2022-11-11T02:42:21;95620.56;;;26.79;46.09
31337;BME280;22846;42.654;23.314;2022-11-11T02:44:47;95622.09;;;26.80;46.31
31337;BME280;22846;42.654;23.314;2022-11-11T02:47:13;95607.84;;;26.69;46.30
31337;BME280;22846;42.654;23.314;2022-11-11T02:49:38;95628.50;;;26.73;46.16
31337;BME280;22846;42.654;23.314;2022-11-11T02:52:04;95631.78;;;26.68;46.32
31337;BME280;22846;42.654;23.314;2022-11-11T02:54:29;95625.50;;;26.68;46.20
31337;BME280;22846;42.654;23.314;2022-11-11T02:56:55;95620.81;;;26.68;46.31
31337;BME280;22846;42.654;23.314;2022-11-11T02:59:37;95623.47;;;26.72;46.52
31337;BME280;22846;42.654;23.314;2022-11-11T03:02:03;95631.59;;;26.75;46.12
31337;BME280;22846;42.654;23.314;2022-11-11T03:04:28;95619.53;;;26.73;46.12
31337;BME280;22846;42.654;23.314;2022-11-11T03:06:54;95625.59;;;26.80;46.04
31337;BME280;22846;42.654;23.314;2022-11-11T03:09:19;95631.00;;;26.84;46.07
31337;BME280;22846;42.654;23.314;2022-11-11T03:11:45;95634.09;;;26.86;46.13
31337;BME280;22846;42.654;23.314;2022-11-11T03:14:10;95627.13;;;26.81;45.80
31337;BME280;22846;42.654;23.314;2022-11-11T03:16:35;95639.03;;;26.75;46.24
31337;BME280;22846;42.654;23.314;2022-11-11T03:19:19;95629.72;;;26.72;46.40
31337;BME280;22846;42.654;23.314;2022-11-11T03:21:45;95631.69;;;26.72;46.38
31337;BME280;22846;42.654;23.314;2022-11-11T03:24:10;95628.06;;;26.75;46.00
31337;BME280;22846;42.654;23.314;2022-11-11T03:26:36;95629.97;;;26.78;45.87
31337;BME280;22846;42.654;23.314;2022-11-11T03:29:02;95631.88;;;26.81;46.11
31337;BME280;22846;42.654;23.314;2022-11-11T03:31:28;95625.50;;;26.84;45.76
31337;BME280;22846;42.654;23.314;2022-11-11T03:33:53;95628.16;;;26.87;45.78
31337;BME280;22846;42.654;23.314;2022-11-11T03:36:19;95627.84;;;26.85;45.95
31337;BME280;22846;42.654;23.314;2022-11-11T03:38:44;95619.34;;;26.80;45.80
31337;BME280;22846;42.654;23.314;2022-11-11T03:41:09;95626.56;;;26.74;45.94
31337;BME280;22846;42.654;23.314;2022-11-11T03:43:35;95626.22;;;26.72;46.03
31337;BME280;22846;42.654;23.314;2022-11-11T03:46:03;95622.69;;;26.71;46.03
31337;BME280;22846;42.654;23.314;2022-11-11T03:48:31;95624.56;;;26.74;46.06
31337;BME280;22846;42.654;23.314;2022-11-11T03:50:57;95631.97;;;26.77;46.06
31337;BME280;22846;42.654;23.314;2022-11-11T03:53:22;95627.59;;;26.80;45.79
31337;BME280;22846;42.654;23.314;2022-11-11T03:55:49;95628.69;;;26.82;45.69
31337;BME280;22846;42.654;23.314;2022-11-11T03:58:16;95630.59;;;26.85;46.04
31337;BME280;22846;42.654;23.314;2022-11-11T04:00:42;95632.53;;;26.85;45.72
31337;BME280;22846;42.654;23.314;2022-11-11T04:05:55;95623.81;;;26.74;45.94
31337;BME280;22846;42.654;23.314;2022-11-11T04:08:39;95625.84;;;26.70;46.03
31337;BME280;22846;42.654;23.314;2022-11-11T04:11:28;95628.94;;;26.72;46.10
31337;BME280;22846;42.654;23.314;2022-11-11T04:13:59;95628.06;;;26.75;46.09
31337;BME280;22846;42.654;23.314;2022-11-11T04:16:44;95626.78;;;26.79;45.83
31337;BME280;22846;42.654;23.314;2022-11-11T04:19:09;95625.94;;;26.82;45.79
31337;BME280;22846;42.654;23.314;2022-11-11T04:21:53;95629.81;;;26.85;45.90
31337;BME280;22846;42.654;23.314;2022-11-11T04:24:20;95624.31;;;26.85;45.78
31337;BME280;22846;42.654;23.314;2022-11-11T04:27:10;95628.03;;;26.78;45.66
31337;BME280;22846;42.654;23.314;2022-11-11T04:29:36;95626.97;;;26.72;45.95
31337;BME280;22846;42.654;23.314;2022-11-11T04:32:04;95624.31;;;26.69;45.94
31337;BME280;22846;42.654;23.314;2022-11-11T04:34:51;95631.34;;;26.70;46.31
31337;BME280;22846;42.654;23.314;2022-11-11T04:37:17;95639.22;;;26.68;47.16
31337;BME280;22846;42.654;23.314;2022-11-11T04:39:43;95638.69;;;26.57;47.71
31337;BME280;22846;42.654;23.314;2022-11-11T04:42:29;95639.66;;;26.50;47.88
31337;BME280;22846;42.654;23.314;2022-11-11T04:44:56;95623.47;;;26.37;48.59
31337;BME280;22846;42.654;23.314;2022-11-11T04:48:00;95645.47;;;26.33;48.59
31337;BME280;22846;42.654;23.314;2022-11-11T04:50:36;95642.53;;;26.24;49.13
31337;BME280;22846;42.654;23.314;2022-11-11T04:53:04;95648.19;;;26.17;49.26
31337;BME280;22846;42.654;23.314;2022-11-11T04:55:30;95642.03;;;26.13;49.38
31337;BME280;22846;42.654;23.314;2022-11-11T04:58:15;95651.91;;;26.07;49.66
31337;BME280;22846;42.654;23.314;2022-11-11T05:00:41;95649.34;;;26.00;49.58
31337;BME280;22846;42.654;23.314;2022-11-11T05:03:09;95661.56;;;25.96;49.82
31337;BME280;22846;42.654;23.314;2022-11-11T05:05:46;95646.38;;;25.91;50.10
31337;BME280;22846;42.654;23.314;2022-11-11T05:08:32;95635.50;;;25.88;50.30
31337;BME280;22846;42.654;23.314;2022-11-11T05:11:16;95641.06;;;25.84;50.19
31337;BME280;22846;42.654;23.314;2022-11-11T05:13:43;95633.44;;;25.72;50.52
31337;BME280;22846;42.654;23.314;2022-11-11T05:16:29;95636.13;;;25.76;50.56
31337;BME280;22846;42.654;23.314;2022-11-11T05:19:15;95644.75;;;25.74;50.50
31337;BME280;22846;42.654;23.314;2022-11-11T05:22:13;95644.06;;;25.70;49.82
31337;BME280;22846;42.654;23.314;2022-11-11T05:24:40;95649.56;;;25.67;50.21
31337;BME280;22846;42.654;23.314;2022-11-11T05:27:25;95643.06;;;25.61;50.31
31337;BME280;22846;42.654;23.314;2022-11-11T05:29:51;95647.78;;;25.61;50.12
31337;BME280;22846;42.654;23.314;2022-11-11T05:32:18;95648.59;;;25.58;50.25
31337;BME280;22846;42.654;23.314;2022-11-11T05:34:44;95654.16;;;25.54;50.59
31337;BME280;22846;42.654;23.314;2022-11-11T05:37:10;95644.09;;;25.48;50.44
31337;BME280;22846;42.654;23.314;2022-11-11T05:39:35;95660.88;;;25.50;50.39
31337;BME280;22846;42.654;23.314;2022-11-11T05:42:01;95664.81;;;25.49;50.55
31337;BME280;22846;42.654;23.314;2022-11-11T05:44:26;95673.09;;;25.45;50.49
31337;BME280;22846;42.654;23.314;2022-11-11T05:46:51;95675.88;;;25.42;50.77
31337;BME280;22846;42.654;23.314;2022-11-11T05:49:17;95687.25;;;25.40;50.54
31337;BME280;22846;42.654;23.314;2022-11-11T05:51:44;95684.94;;;25.39;50.54
31337;BME280;22846;42.654;23.314;2022-11-11T05:54:10;95687.31;;;25.37;50.55
31337;BME280;22846;42.654;23.314;2022-11-11T05:56:35;95686.97;;;25.35;50.56
31337;BME280;22846;42.654;23.314;2022-11-11T05:59:01;95686.31;;;25.27;50.44
31337;BME280;22846;42.654;23.314;2022-11-11T06:01:26;95694.44;;;25.31;50.67
31337;BME280;22846;42.654;23.314;2022-11-11T06:03:52;95706.59;;;25.30;50.61
31337;BME280;22846;42.654;23.314;2022-11-11T06:06:17;95706.22;;;25.28;50.63
31337;BME280;22846;42.654;23.314;2022-11-11T06:08:43;95678.78;;;25.08;50.80
31337;BME280;22846;42.654;23.314;2022-11-11T06:11:08;95704.78;;;25.20;50.75
31337;BME280;22846;42.654;23.314;2022-11-11T06:13:34;95714.91;;;25.23;50.82
31337;BME280;22846;42.654;23.314;2022-11-11T06:15:59;95723.88;;;25.23;50.69
31337;BME280;22846;42.654;23.314;2022-11-11T06:18:25;95722.75;;;25.21;50.79
31337;BME280;22846;42.654;23.314;2022-11-11T06:20:57;95720.09;;;25.17;50.50
31337;BME280;22846;42.654;23.314;2022-11-11T06:23:24;95729.84;;;25.18;50.87
31337;BME280;22846;42.654;23.314;2022-11-11T06:25:50;95742.75;;;25.18;50.78
31337;BME280;22846;42.654;23.314;2022-11-11T06:28:35;95719.06;;;25.08;50.77
31337;BME280;22846;42.654;23.314;2022-11-11T06:31:00;95735.38;;;25.15;50.71
31337;BME280;22846;42.654;23.314;2022-11-11T06:33:26;95742.50;;;25.09;50.52
31337;BME280;22846;42.654;23.314;2022-11-11T06:35:52;95751.84;;;25.11;50.66
31337;BME280;22846;42.654;23.314;2022-11-11T06:38:17;95743.66;;;25.11;50.71
31337;BME280;22846;42.654;23.314;2022-11-11T06:40:43;95753.78;;;25.11;50.74
31337;BME280;22846;42.654;23.314;2022-11-11T06:43:09;95753.88;;;25.04;50.66
31337;BME280;22846;42.654;23.314;2022-11-11T06:45:35;95764.38;;;25.09;50.85
31337;BME280;22846;42.654;23.314;2022-11-11T06:48:02;95762.81;;;25.08;50.46
31337;BME280;22846;42.654;23.314;2022-11-11T06:50:27;95765.56;;;25.08;50.46
31337;BME280;22846;42.654;23.314;2022-11-11T06:52:55;95764.00;;;25.07;50.58
31337;BME280;22846;42.654;23.314;2022-11-11T06:55:21;95765.19;;;25.06;50.89
31337;BME280;22846;42.654;23.314;2022-11-11T06:57:46;95762.88;;;25.04;50.85
31337;BME280;22846;42.654;23.314;2022-11-11T07:00:12;95766.78;;;25.03;50.92
31337;BME280;22846;42.654;23.314;2022-11-11T07:02:38;95767.19;;;25.02;50.51
31337;BME280;22846;42.654;23.314;2022-11-11T07:05:04;95767.97;;;25.02;50.61
31337;BME280;22846;42.654;23.314;2022-11-11T07:07:30;95761.38;;;25.00;50.88
31337;BME280;22846;42.654;23.314;2022-11-11T07:09:56;95766.84;;;25.00;50.47
31337;BME280;22846;42.654;23.314;2022-11-11T07:12:21;95770.78;;;24.99;50.39
31337;BME280;22846;42.654;23.314;2022-11-11T07:14:47;95767.25;;;24.98;50.74
31337;BME280;22846;42.654;23.314;2022-11-11T07:17:13;95766.06;;;24.99;50.57
31337;BME280;22846;42.654;23.314;2022-11-11T07:19:38;95773.91;;;24.97;50.74
31337;BME280;22846;42.654;23.314;2022-11-11T07:22:03;95775.88;;;24.97;50.38
31337;BME280;22846;42.654;23.314;2022-11-11T07:24:29;95784.84;;;24.97;50.48
31337;BME280;22846;42.654;23.314;2022-11-11T07:26:54;95784.06;;;24.97;50.34
31337;BME280;22846;42.654;23.314;2022-11-11T07:29:20;95787.22;;;24.95;50.54
31337;BME280;22846;42.654;23.314;2022-11-11T07:31:45;95792.69;;;24.95;50.44
31337;BME280;22846;42.654;23.314;2022-11-11T07:34:11;95790.38;;;24.94;50.34
31337;BME280;22846;42.654;23.314;2022-11-11T07:36:36;95793.09;;;24.94;50.36
31337;BME280;22846;42.654;23.314;2022-11-11T07:39:02;95801.72;;;24.92;50.51
31337;BME280;22846;42.654;23.314;2022-11-11T07:41:27;95803.69;;;24.92;50.35
31337;BME280;22846;42.654;23.314;2022-11-11T07:43:53;95802.16;;;24.91;50.80
31337;BME280;22846;42.654;23.314;2022-11-11T07:46:18;95807.63;;;24.91;50.42
31337;BME280;22846;42.654;23.314;2022-11-11T07:48:43;95809.56;;;24.90;50.41
31337;BME280;22846;42.654;23.314;2022-11-11T07:51:09;95811.94;;;24.88;50.49
31337;BME280;22846;42.654;23.314;2022-11-11T07:53:34;95809.97;;;24.89;50.62
31337;BME280;22846;42.654;23.314;2022-11-11T07:56:00;95813.91;;;24.88;50.67
31337;BME280;22846;42.654;23.314;2022-11-11T07:58:25;95824.06;;;24.87;50.43
31337;BME280;22846;42.654;23.314;2022-11-11T08:00:51;95812.34;;;24.87;50.44
31337;BME280;22846;42.654;23.314;2022-11-11T08:03:16;95817.44;;;24.85;50.52
31337;BME280;22846;42.654;23.314;2022-11-11T08:05:42;95818.22;;;24.85;50.57
31337;BME280;22846;42.654;23.314;2022-11-11T08:08:09;95828.38;;;24.85;50.46
31337;BME280;22846;42.654;23.314;2022-11-11T08:10:35;95824.88;;;24.84;50.68
31337;BME280;22846;42.654;23.314;2022-11-11T08:13:01;95824.13;;;24.84;50.54
31337;BME280;22846;42.654;23.314;2022-11-11T08:15:45;95821.78;;;24.82;50.75
31337;BME280;22846;42.654;23.314;2022-11-11T08:18:11;95831.97;;;24.82;50.29
31337;BME280;22846;42.654;23.314;2022-11-11T08:20:37;95831.97;;;24.82;50.74
31337;BME280;22846;42.654;23.314;2022-11-11T08:23:02;95831.59;;;24.80;50.44
31337;BME280;22846;42.654;23.314;2022-11-11T08:25:35;95837.06;;;24.80;50.65
31337;BME280;22846;42.654;23.314;2022-11-11T08:28:03;95831.22;;;24.78;50.42
31337;BME280;22846;42.654;23.314;2022-11-11T08:30:30;95824.63;;;24.76;50.62
31337;BME280;22846;42.654;23.314;2022-11-11T08:33:04;95805.56;;;24.69;50.66
31337;BME280;22846;42.654;23.314;2022-11-11T08:35:30;95823.44;;;24.77;50.59
31337;BME280;22846;42.654;23.314;2022-11-11T08:38:00;95819.97;;;24.73;50.65
31337;BME280;22846;42.654;23.314;2022-11-11T08:40:26;95829.31;;;24.75;50.55
31337;BME280;22846;42.654;23.314;2022-11-11T08:42:55;95835.91;;;24.77;50.61
31337;BME280;22846;42.654;23.314;2022-11-11T08:45:21;95835.13;;;24.77;50.72
31337;BME280;22846;42.654;23.314;2022-11-11T08:47:47;95840.59;;;24.77;50.59
31337;BME280;22846;42.654;23.314;2022-11-11T08:50:12;95836.34;;;24.73;50.50
31337;BME280;22846;42.654;23.314;2022-11-11T08:52:37;95832.06;;;24.75;50.40
31337;BME280;22846;42.654;23.314;2022-11-11T08:55:03;95832.81;;;24.76;50.54
31337;BME280;22846;42.654;23.314;2022-11-11T08:57:29;95829.31;;;24.75;50.49
31337;BME280;22846;42.654;23.314;2022-11-11T08:59:54;95836.72;;;24.75;50.35
31337;BME280;22846;42.654;23.314;2022-11-11T09:02:20;95834.00;;;24.75;50.32
31337;BME280;22846;42.654;23.314;2022-11-11T09:04:45;95835.97;;;24.74;50.24
31337;BME280;22846;42.654;23.314;2022-11-11T09:07:11;95823.88;;;24.72;50.18
31337;BME280;22846;42.654;23.314;2022-11-11T09:09:37;95839.09;;;24.73;50.20
31337;BME280;22846;42.654;23.314;2022-11-11T09:12:02;95828.94;;;24.73;50.33
31337;BME280;22846;42.654;23.314;2022-11-11T09:14:28;95826.22;;;24.73;50.32
31337;BME280;22846;42.654;23.314;2022-11-11T09:16:53;95821.94;;;24.72;50.30
31337;BME280;22846;42.654;23.314;2022-11-11T09:19:18;95822.75;;;24.69;50.39
31337;BME280;22846;42.654;23.314;2022-11-11T09:21:44;95826.59;;;24.72;50.46
31337;BME280;22846;42.654;23.314;2022-11-11T09:24:09;95827.41;;;24.72;50.57
31337;BME280;22846;42.654;23.314;2022-11-11T09:26:35;95827.41;;;24.72;50.41
31337;BME280;22846;42.654;23.314;2022-11-11T09:29:00;95825.84;;;24.71;50.26
31337;BME280;22846;42.654;23.314;2022-11-11T09:31:25;95827.81;;;24.71;50.22
31337;BME280;22846;42.654;23.314;2022-11-11T09:33:52;95832.50;;;24.70;50.16
31337;BME280;22846;42.654;23.314;2022-11-11T09:36:18;95818.06;;;24.70;50.55
31337;BME280;22846;42.654;23.314;2022-11-11T09:38:43;95823.53;;;24.70;50.49
31337;BME280;22846;42.654;23.314;2022-11-11T09:41:21;95817.28;;;24.69;50.53
31337;BME280;22846;42.654;23.314;2022-11-11T09:43:59;95815.72;;;24.68;50.60
31337;BME280;22846;42.654;23.314;2022-11-11T09:52:15;95803.22;;;24.67;50.38
31337;BME280;22846;42.654;23.314;2022-11-11T09:55:05;95811.44;;;24.67;50.48
31337;BME280;22846;42.654;23.314;2022-11-11T09:57:44;95780.81;;;24.53;50.51
31337;BME280;22846;42.654;23.314;2022-11-11T10:05:26;95800.91;;;24.66;50.51
31337;BME280;22846;42.654;23.314;2022-11-11T10:08:03;95802.09;;;24.65;50.31
31337;BME280;22846;42.654;23.314;2022-11-11T10:10:52;95786.94;;;24.60;50.57
31337;BME280;22846;42.654;23.314;2022-11-11T10:13:33;95791.16;;;24.65;50.59
31337;BME280;22846;42.654;23.314;2022-11-11T10:16:24;95798.59;;;24.64;50.07
31337;BME280;22846;42.654;23.314;2022-11-11T10:19:04;95798.59;;;24.64;50.16
31337;BME280;22846;42.654;23.314;2022-11-11T10:21:41;95797.06;;;24.63;50.20
31337;BME280;22846;42.654;23.314;2022-11-11T10:24:16;95795.06;;;24.64;50.31
31337;BME280;22846;42.654;23.314;2022-11-11T10:26:44;95792.75;;;24.62;50.21
31337;BME280;22846;42.654;23.314;2022-11-11T10:29:21;95797.06;;;24.63;50.16
31337;BME280;22846;42.654;23.314;2022-11-11T10:32:21;95790.41;;;24.64;50.58
31337;BME280;22846;42.654;23.314;2022-11-11T10:34:49;95788.84;;;24.63;50.48
31337;BME280;22846;42.654;23.314;2022-11-11T10:37:22;95788.84;;;24.63;50.17
31337;BME280;22846;42.654;23.314;2022-11-11T10:40:04;95790.41;;;24.64;50.22
31337;BME280;22846;42.654;23.314;2022-11-11T10:42:31;95776.47;;;24.55;50.48
31337;BME280;22846;42.654;23.314;2022-11-11T10:45:00;95788.84;;;24.63;50.37
31337;BME280;22846;42.654;23.314;2022-11-11T10:47:41;95783.75;;;24.65;50.22
31337;BME280;22846;42.654;23.314;2022-11-11T11:00:50;95776.38;;;24.62;50.21
31337;BME280;22846;42.654;23.314;2022-11-11T11:03:35;95778.34;;;24.62;50.44
31337;BME280;22846;42.654;23.314;2022-11-11T11:06:07;95775.59;;;24.62;50.36
31337;BME280;22846;42.654;23.314;2022-11-11T11:08:39;95777.19;;;24.59;50.38
31337;BME280;22846;42.654;23.314;2022-11-11T11:11:15;95765.06;;;24.60;50.52
31337;BME280;22846;42.654;23.314;2022-11-11T11:13:51;95759.25;;;24.58;50.30
31337;BME280;22846;42.654;23.314;2022-11-11T11:16:24;95765.84;;;24.61;50.13
31337;BME280;22846;42.654;23.314;2022-11-11T11:19:12;95761.94;;;24.62;50.34
31337;BME280;22846;42.654;23.314;2022-11-11T11:21:59;95761.16;;;24.61;50.00
31337;BME280;22846;42.654;23.314;2022-11-11T11:24:30;95761.94;;;24.62;50.02
31337;BME280;22846;42.654;23.314;2022-11-11T11:27:00;95761.16;;;24.61;50.03
31337;BME280;22846;42.654;23.314;2022-11-11T11:29:43;95751.00;;;24.62;50.01
31337;BME280;22846;42.654;23.314;2022-11-11T11:34:49;95749.81;;;24.63;49.87
31337;BME280;22846;42.654;23.314;2022-11-11T11:37:15;95747.84;;;24.63;50.04
31337;BME280;22846;42.654;23.314;2022-11-11T11:39:41;95735.09;;;24.53;49.98
31337;BME280;22846;42.654;23.314;2022-11-11T11:42:07;95739.66;;;24.63;50.02
31337;BME280;22846;42.654;23.314;2022-11-11T11:44:38;95737.69;;;24.64;49.87
31337;BME280;22846;42.654;23.314;2022-11-11T11:55:36;95738.47;;;24.64;49.82
31337;BME280;22846;42.654;23.314;2022-11-11T11:58:28;95737.28;;;24.65;50.28
31337;BME280;22846;42.654;23.314;2022-11-11T12:01:02;95733.00;;;24.64;50.25
31337;BME280;22846;42.654;23.314;2022-11-11T12:03:40;95738.47;;;24.64;50.01
31337;BME280;22846;42.654;23.314;2022-11-11T12:06:11;95736.50;;;24.65;49.74
31337;BME280;22846;42.654;23.314;2022-11-11T12:14:44;95735.38;;;24.62;50.23
31337;BME280;22846;42.654;23.314;2022-11-11T12:17:24;95731.09;;;24.61;49.83
31337;BME280;22846;42.654;23.314;2022-11-11T12:20:23;95727.59;;;24.61;49.83
31337;BME280;22846;42.654;23.314;2022-11-11T12:48:35;95700.69;;;24.56;50.14
31337;BME280;22846;42.654;23.314;2022-11-11T12:54:33;95701.13;;;24.54;49.98
31337;BME280;22846;42.654;23.314;2022-11-11T13:03:06;95704.66;;;24.51;50.18
31337;BME280;22846;42.654;23.314;2022-11-11T13:06:17;95717.56;;;24.51;49.86
31337;BME280;22846;42.654;23.314;2022-11-11T13:11:23;95724.63;;;24.48;50.25
31337;BME280;22846;42.654;23.314;2022-11-11T13:14:23;95718.75;;;24.50;49.80
31337;BME280;22846;42.654;23.314;2022-11-11T13:16:56;95718.00;;;24.49;49.80
31337;BME280;22846;42.654;23.314;2022-11-11T13:19:40;95712.91;;;24.48;49.96
31337;BME280;22846;42.654;23.314;2022-11-11T13:22:20;95722.28;;;24.47;50.01
31337;BME280;22846;42.654;23.314;2022-11-11T13:24:48;95721.13;;;24.48;50.20
31337;BME280;22846;42.654;23.314;2022-11-11T13:30:03;95716.06;;;24.46;49.93
31337;BME280;22846;42.654;23.314;2022-11-11T13:37:51;95718.00;;;24.46;49.69
31337;BME280;22846;42.654;23.314;2022-11-11T13:40:31;95721.97;;;24.45;50.00
31337;BME280;22846;42.654;23.314;2022-11-11T13:42:59;95722.72;;;24.45;50.11
31337;BME280;22846;42.654;23.314;2022-11-11T13:45:37;95726.63;;;24.44;49.79
31337;BME280;22846;42.654;23.314;2022-11-11T13:48:04;95724.69;;;24.45;49.68
31337;BME280;22846;42.654;23.314;2022-11-11T13:50:31;95729.38;;;24.44;49.97
31337;BME280;22846;42.654;23.314;2022-11-11T13:53:02;95722.34;;;24.43;50.05
31337;BME280;22846;42.654;23.314;2022-11-11T13:57:53;95723.13;;;24.44;49.78
31337;BME280;22846;42.654;23.314;2022-11-11T14:02:46;95726.22;;;24.42;50.14
31337;BME280;22846;42.654;23.314;2022-11-11T14:15:51;95727.06;;;24.39;50.05
31337;BME280;22846;42.654;23.314;2022-11-11T14:20:52;95725.19;;;24.33;49.95
31337;BME280;22846;42.654;23.314;2022-11-11T14:25:50;95738.38;;;24.38;49.86
31337;BME280;22846;42.654;23.314;2022-11-11T14:31:23;95737.63;;;24.37;49.83
31337;BME280;22846;42.654;23.314;2022-11-11T14:33:51;95740.72;;;24.39;49.90
31337;BME280;22846;42.654;23.314;2022-11-11T14:41:53;95753.56;;;24.42;50.03
31337;BME280;22846;42.654;23.314;2022-11-11T14:52:41;95753.97;;;24.44;50.08
31337;BME280;22846;42.654;23.314;2022-11-11T14:55:27;95756.69;;;24.44;49.80
31337;BME280;22846;42.654;23.314;2022-11-11T15:00:27;95759.22;;;24.62;49.58
31337;BME280;22846;42.654;23.314;2022-11-11T15:03:11;95751.75;;;24.62;49.80
31337;BME280;22846;42.654;23.314;2022-11-11T15:05:59;95749.66;;;24.73;49.93
31337;BME280;22846;42.654;23.314;2022-11-11T15:23:21;95753.84;;;25.34;47.78
31337;BME280;22846;42.654;23.314;2022-11-11T15:31:36;95764.25;;;25.65;47.38
31337;BME280;22846;42.654;23.314;2022-11-11T15:39:19;95736.19;;;25.80;47.22
31337;BME280;22846;42.654;23.314;2022-11-11T15:41:48;95743.31;;;25.97;47.04